Time;durP1;ratioP1;P1;durP2;ratioP2;P2;SDS_P1;SDS_P2;PMS_P1;PMS_P2;Temp;Humidity;BMP_temperature;BMP_pressure;BME280_temperature;BME280_humidity;BME280_pressure;Samples;Min_cycle;Max_cycle;Signal;HPM_P1;HPM_P2
2024/03/24 00:08:22;;;;;;;13.10;11.10;;;;;;;8.29;62.77;99314.97;103186;1285;599456;-67
2024/03/24 00:18:45;;;;;;;14.60;11.90;;;;;;;8.30;62.70;99303.71;102577;1301;607676;-66
2024/03/24 00:21:11;;;;;;;15.70;11.60;;;;;;;8.27;62.72;99308.70;104997;1270;59658;-67
2024/03/24 00:23:39;;;;;;;15.40;11.80;;;;;;;8.26;62.74;99310.36;104742;1269;59626;-67
2024/03/24 00:26:06;;;;;;;15.40;11.60;;;;;;;8.25;62.69;99308.89;104870;1265;64109;-66
2024/03/24 00:28:35;;;;;;;16.10;12.40;;;;;;;8.23;62.81;99307.45;104821;1269;59731;-66
2024/03/24 00:31:02;;;;;;;15.30;12.30;;;;;;;8.22;62.80;99302.63;104690;1263;226682;-67
2024/03/24 00:33:30;;;;;;;16.10;12.30;;;;;;;8.21;62.99;99299.09;105242;1264;59555;-67
2024/03/24 00:35:57;;;;;;;14.50;11.50;;;;;;;8.20;63.00;99298.60;105063;1265;59770;-67
2024/03/24 00:38:23;;;;;;;15.30;12.10;;;;;;;8.20;63.09;99295.50;105232;1260;64213;-67
2024/03/24 00:40:50;;;;;;;15.40;12.60;;;;;;;8.18;63.14;99293.52;105584;1260;59732;-66
2024/03/24 00:43:17;;;;;;;17.50;12.70;;;;;;;8.17;63.26;99299.05;105702;1258;64166;-67
2024/03/24 00:45:44;;;;;;;14.70;12.30;;;;;;;8.16;63.34;99298.14;105614;1257;60343;-66
2024/03/24 00:48:11;;;;;;;16.50;12.80;;;;;;;8.13;63.35;99289.75;105509;1257;60453;-67
2024/03/24 00:50:38;;;;;;;16.80;12.70;;;;;;;8.12;63.48;99284.60;105511;1259;65209;-65
2024/03/24 00:53:05;;;;;;;17.50;13.40;;;;;;;8.12;63.62;99275.36;105393;1257;60547;-65
2024/03/24 00:55:32;;;;;;;16.40;13.50;;;;;;;8.09;63.80;99269.38;105439;1256;64211;-66
2024/03/24 00:57:59;;;;;;;18.50;13.50;;;;;;;8.07;63.87;99271.69;105442;1259;60343;-66
2024/03/24 01:00:27;;;;;;;16.30;12.80;;;;;;;8.06;63.87;99268.10;105341;1258;60518;-66
2024/03/24 01:02:54;;;;;;;18.20;13.70;;;;;;;8.05;63.91;99269.55;105396;1258;65263;-66
2024/03/24 01:05:21;;;;;;;17.40;13.00;;;;;;;8.04;64.08;99266.66;105501;1259;60441;-65
2024/03/24 01:07:51;;;;;;;18.60;13.60;;;;;;;8.02;64.18;99261.03;105584;1257;64172;-66
2024/03/24 01:10:18;;;;;;;18.30;13.90;;;;;;;7.99;64.23;99252.70;105629;1257;60358;-66
2024/03/24 01:12:49;;;;;;;17.90;14.30;;;;;;;7.97;64.13;99247.60;105400;1255;60464;-66
2024/03/24 01:15:16;;;;;;;19.80;15.10;;;;;;;7.97;64.15;99247.65;105472;1259;65590;-65
2024/03/24 01:17:44;;;;;;;21.30;15.90;;;;;;;7.95;64.19;99240.79;105349;1256;60559;-66
2024/03/24 01:20:11;;;;;;;19.30;15.30;;;;;;;7.93;64.18;99235.04;105412;1256;62790;-66
2024/03/24 01:22:39;;;;;;;18.30;14.60;;;;;;;7.91;64.28;99239.23;105388;1259;60351;-67
2024/03/24 01:25:07;;;;;;;21.20;16.20;;;;;;;7.88;64.37;99236.66;105604;1257;60448;-67
2024/03/24 01:27:34;;;;;;;19.70;15.20;;;;;;;7.86;64.40;99234.28;105606;1259;64891;-69
2024/03/24 01:30:01;;;;;;;22.30;15.90;;;;;;;7.84;64.44;99234.30;105554;1257;60536;-68
2024/03/24 01:32:29;;;;;;;19.50;15.00;;;;;;;7.82;64.50;99230.26;105447;1256;64046;-67
2024/03/24 01:34:55;;;;;;;17.40;14.00;;;;;;;7.80;64.52;99228.85;105402;1260;60480;-68
2024/03/24 01:37:22;;;;;;;17.80;13.70;;;;;;;7.78;64.65;99226.86;105443;1258;60550;-69
2024/03/24 01:39:49;;;;;;;18.80;13.80;;;;;;;7.76;64.67;99223.02;105537;1260;65200;-66
2024/03/24 01:42:16;;;;;;;19.70;14.70;;;;;;;7.72;64.59;99218.62;105512;1257;60473;-69
2024/03/24 01:44:43;;;;;;;17.50;12.70;;;;;;;7.68;64.62;99218.76;105661;1256;63856;-68
2024/03/24 01:47:10;;;;;;;18.20;13.80;;;;;;;7.67;64.73;99220.67;105594;1260;60460;-68
2024/03/24 01:49:39;;;;;;;18.10;13.60;;;;;;;7.64;64.80;99217.04;105424;1260;60469;-69
2024/03/24 01:52:06;;;;;;;17.90;12.70;;;;;;;7.63;64.88;99214.20;105510;1260;65081;-67
2024/03/24 01:54:36;;;;;;;18.10;13.20;;;;;;;7.60;64.98;99208.27;105649;1257;60468;-67
2024/03/24 01:57:04;;;;;;;19.60;13.30;;;;;;;7.57;65.07;99206.63;105625;1256;64001;-66
2024/03/24 01:59:30;;;;;;;19.10;13.90;;;;;;;7.54;65.15;99209.16;105575;1260;60420;-67
2024/03/24 02:01:57;;;;;;;19.00;13.20;;;;;;;7.52;65.26;99205.27;105580;1258;60469;-67
2024/03/24 02:04:24;;;;;;;17.90;13.70;;;;;;;7.51;65.37;99203.29;105459;1260;65176;-67
2024/03/24 02:06:51;;;;;;;17.80;13.10;;;;;;;7.48;65.42;99207.55;105345;1262;60522;-67
2024/03/24 02:09:19;;;;;;;18.00;13.40;;;;;;;7.48;65.53;99209.88;105355;1257;64090;-67
2024/03/24 02:11:45;;;;;;;17.80;13.40;;;;;;;7.46;65.63;99201.90;105422;1256;60785;-68
2024/03/24 02:14:12;;;;;;;17.40;13.90;;;;;;;7.46;65.65;99202.10;105624;1257;61171;-67
2024/03/24 02:16:40;;;;;;;18.30;13.70;;;;;;;7.46;65.68;99203.54;105448;1255;63980;-67
2024/03/24 02:19:07;;;;;;;16.40;12.80;;;;;;;7.44;65.80;99198.13;105316;1257;60549;-67
2024/03/24 02:21:34;;;;;;;17.00;12.90;;;;;;;7.41;65.94;99194.66;105395;1256;64126;-66
2024/03/24 02:24:01;;;;;;;18.30;12.80;;;;;;;7.39;65.94;99193.40;105644;1256;60368;-66
2024/03/24 02:26:28;;;;;;;18.00;13.60;;;;;;;7.38;66.03;99192.31;105242;1256;60476;-67
2024/03/24 02:28:55;;;;;;;18.90;13.70;;;;;;;7.36;66.10;99190.55;105561;1259;65160;-67
2024/03/24 02:31:22;;;;;;;18.60;14.10;;;;;;;7.34;66.22;99190.21;105564;1257;60377;-66
2024/03/24 02:33:49;;;;;;;19.80;14.30;;;;;;;7.30;66.23;99192.82;105613;1257;64033;-69
2024/03/24 02:36:16;;;;;;;19.20;13.70;;;;;;;7.27;66.35;99188.70;105480;1257;60473;-70
2024/03/24 02:38:43;;;;;;;18.90;13.60;;;;;;;7.25;66.52;99184.65;105982;1256;60462;-67
2024/03/24 02:41:10;;;;;;;18.80;13.50;;;;;;;7.22;66.58;99175.64;105646;1259;66541;-68
2024/03/24 02:43:37;;;;;;;18.30;14.00;;;;;;;7.20;66.59;99172.50;105504;1256;60456;-67
2024/03/24 02:46:03;;;;;;;17.40;13.50;;;;;;;7.19;66.63;99175.73;105690;1254;63877;-71
2024/03/24 02:48:30;;;;;;;17.10;13.50;;;;;;;7.17;66.79;99175.73;105774;1256;60387;-67
2024/03/24 02:50:58;;;;;;;19.50;14.00;;;;;;;7.14;66.86;99173.83;105754;1257;60476;-66
2024/03/24 02:53:25;;;;;;;18.10;13.90;;;;;;;7.11;67.04;99173.39;105586;1254;65215;-66
2024/03/24 02:55:52;;;;;;;18.90;14.40;;;;;;;7.08;67.26;99174.35;105531;1256;60458;-67
2024/03/24 02:58:18;;;;;;;20.10;14.30;;;;;;;7.05;67.44;99175.13;105496;1256;63746;-66
2024/03/24 03:00:46;;;;;;;18.60;13.80;;;;;;;7.02;67.47;99171.33;105481;1259;60388;-68
2024/03/24 03:03:12;;;;;;;17.40;13.10;;;;;;;7.01;67.63;99169.38;105375;1256;60821;-65
2024/03/24 03:05:39;;;;;;;19.50;13.60;;;;;;;7.00;67.71;99165.04;105348;1257;65085;-66
2024/03/24 03:08:06;;;;;;;17.80;13.70;;;;;;;7.00;67.80;99167.85;105188;1257;60629;-66
2024/03/24 03:10:35;;;;;;;19.20;13.90;;;;;;;7.00;67.87;99167.02;105305;1256;64041;-66
2024/03/24 03:13:04;;;;;;;18.30;13.80;;;;;;;6.99;67.94;99162.16;105401;1259;60431;-66
2024/03/24 03:15:31;;;;;;;20.70;14.20;;;;;;;6.99;68.04;99161.13;105329;1260;60387;-66
2024/03/24 03:17:58;;;;;;;18.40;13.70;;;;;;;6.98;68.07;99163.11;105549;1256;65186;-67
2024/03/24 03:20:25;;;;;;;17.80;13.20;;;;;;;6.98;68.13;99158.77;105488;1257;60498;-67
2024/03/24 03:22:53;;;;;;;16.90;13.30;;;;;;;6.96;68.26;99163.14;105586;1256;64710;-67
2024/03/24 03:25:19;;;;;;;19.30;12.60;;;;;;;6.94;68.35;99159.94;105613;1257;60350;-66
2024/03/24 03:27:46;;;;;;;18.30;13.20;;;;;;;6.93;68.37;99153.59;105597;1256;60476;-66
2024/03/24 03:30:13;;;;;;;16.90;13.10;;;;;;;6.92;68.53;99152.40;105661;1256;65246;-65
2024/03/24 03:32:40;;;;;;;16.30;13.10;;;;;;;6.90;68.66;99152.75;105575;1257;60495;-67
2024/03/24 03:35:07;;;;;;;19.20;13.50;;;;;;;6.88;68.76;99152.79;105694;1256;63843;-67
2024/03/24 03:37:34;;;;;;;18.30;13.20;;;;;;;6.86;68.84;99152.00;105634;1256;60548;-66
2024/03/24 03:40:00;;;;;;;18.70;13.10;;;;;;;6.86;68.90;99151.31;105683;1257;60450;-67
2024/03/24 03:42:27;;;;;;;18.10;13.10;;;;;;;6.86;68.98;99152.77;105578;1255;65232;-69
2024/03/24 03:44:54;;;;;;;17.50;13.30;;;;;;;6.85;68.95;99151.60;105515;1259;60448;-67
2024/03/24 03:47:22;;;;;;;17.10;13.00;;;;;;;6.83;69.02;99153.30;105531;1257;64099;-66
2024/03/24 03:49:51;;;;;;;16.50;13.20;;;;;;;6.81;68.97;99152.45;105466;1257;60536;-67
2024/03/24 03:52:25;;;;;;;14.30;11.70;;;;;;;6.80;69.01;99152.00;105578;1256;60438;-66
2024/03/24 03:54:53;;;;;;;18.50;13.00;;;;;;;6.78;69.07;99151.49;105388;1262;65032;-66
2024/03/24 03:57:20;;;;;;;17.80;12.10;;;;;;;6.77;69.08;99141.44;105644;1258;60436;-67
2024/03/24 03:59:46;;;;;;;19.10;13.60;;;;;;;6.76;69.21;99137.15;105548;1260;64107;-67
2024/03/24 04:02:15;;;;;;;17.40;13.10;;;;;;;6.74;69.29;99142.17;105733;1259;60453;-67
2024/03/24 04:04:42;;;;;;;17.50;13.30;;;;;;;6.72;69.28;99137.44;105612;1257;60426;-66
2024/03/24 04:07:09;;;;;;;18.70;13.70;;;;;;;6.70;69.38;99136.21;105654;1255;65596;-66
2024/03/24 04:09:35;;;;;;;16.70;13.30;;;;;;;6.70;69.44;99133.64;105564;1260;60557;-67
2024/03/24 04:12:04;;;;;;;17.30;12.30;;;;;;;6.69;69.55;99136.71;105566;1254;63840;-66
2024/03/24 04:14:31;;;;;;;20.80;13.30;;;;;;;6.67;69.60;99135.62;105487;1254;60476;-68
2024/03/24 04:16:58;;;;;;;19.40;13.30;;;;;;;6.68;69.68;99137.50;105364;1257;60553;-68
2024/03/24 04:19:25;;;;;;;17.40;12.90;;;;;;;6.67;69.71;99137.52;105423;1260;65214;-66
2024/03/24 04:21:51;;;;;;;16.30;13.20;;;;;;;6.66;69.67;99138.70;105587;1257;60498;-67
2024/03/24 04:24:19;;;;;;;18.60;12.90;;;;;;;6.65;69.73;99132.85;105481;1257;63882;-67
2024/03/24 04:26:46;;;;;;;19.10;13.10;;;;;;;6.64;69.81;99136.54;105602;1256;61171;-67
2024/03/24 04:29:13;;;;;;;18.20;13.30;;;;;;;6.64;69.81;99133.95;105750;1256;61279;-66
2024/03/24 04:31:42;;;;;;;17.20;13.30;;;;;;;6.64;69.92;99136.38;105570;1259;65882;-67
2024/03/24 04:34:11;;;;;;;18.40;13.20;;;;;;;6.65;69.95;99132.16;105759;1259;61247;-66
2024/03/24 04:36:38;;;;;;;18.30;13.40;;;;;;;6.64;69.99;99130.98;105580;1257;63871;-66
2024/03/24 04:39:05;;;;;;;19.10;13.40;;;;;;;6.63;70.07;99130.69;105430;1259;61264;-66
2024/03/24 04:41:32;;;;;;;18.70;13.50;;;;;;;6.62;70.08;99131.82;105542;1256;61292;-66
2024/03/24 04:43:58;;;;;;;17.70;13.30;;;;;;;6.62;70.11;99128.70;105316;1259;66018;-66
2024/03/24 04:46:25;;;;;;;18.50;12.80;;;;;;;6.61;70.19;99125.30;105361;1257;61280;-68
2024/03/24 04:48:52;;;;;;;19.60;13.40;;;;;;;6.60;70.26;99124.63;105585;1257;64022;-69
2024/03/24 04:51:19;;;;;;;19.90;13.70;;;;;;;6.61;70.39;99123.33;105518;1256;61238;-66
2024/03/24 04:53:46;;;;;;;17.80;13.30;;;;;;;6.62;70.35;99120.33;105512;1257;61283;-66
2024/03/24 04:56:16;;;;;;;19.10;13.60;;;;;;;6.62;70.40;99118.00;105400;1257;65865;-69
2024/03/24 04:58:43;;;;;;;17.80;13.20;;;;;;;6.62;70.44;99117.84;105742;1256;61257;-69
2024/03/24 05:01:11;;;;;;;18.80;13.50;;;;;;;6.62;70.47;99115.24;105622;1257;64031;-68
2024/03/24 05:03:38;;;;;;;17.90;13.00;;;;;;;6.61;70.52;99113.58;105566;1257;61296;-67
2024/03/24 05:06:05;;;;;;;16.40;12.60;;;;;;;6.62;70.52;99112.09;105513;1257;61244;-68
2024/03/24 05:08:36;;;;;;;17.70;12.60;;;;;;;6.64;70.62;99106.98;105488;1257;66132;-67
2024/03/24 05:11:09;;;;;;;20.70;12.70;;;;;;;6.67;70.67;99104.54;105394;1258;61176;-67
2024/03/24 05:13:38;;;;;;;20.30;15.30;;;;;;;6.67;70.69;99109.55;105314;1257;63059;-67
2024/03/24 05:16:07;;;;;;;26.60;16.70;;;;;;;6.70;70.77;99103.23;105502;1257;61342;-67
2024/03/24 05:18:36;;;;;;;29.40;17.30;;;;;;;6.72;70.77;99101.77;105181;1263;61261;-66
2024/03/24 05:21:04;;;;;;;20.30;13.60;;;;;;;6.75;70.82;99101.91;105416;1257;64573;-67
2024/03/24 05:23:31;;;;;;;16.50;12.40;;;;;;;6.77;70.85;99104.14;105763;1254;61304;-68
2024/03/24 05:25:58;;;;;;;16.60;12.40;;;;;;;6.81;70.90;99108.91;105527;1257;63718;-67
2024/03/24 05:28:25;;;;;;;17.00;12.10;;;;;;;6.84;70.91;99105.64;105618;1256;61263;-68
2024/03/24 05:30:54;;;;;;;15.10;12.00;;;;;;;6.88;70.86;99100.48;105729;1257;61279;-69
2024/03/24 05:33:21;;;;;;;16.00;11.80;;;;;;;6.92;70.88;99100.16;105504;1257;65875;-68
2024/03/24 05:35:51;;;;;;;17.00;11.60;;;;;;;6.95;70.79;99104.24;105575;1259;61330;-68
2024/03/24 05:38:18;;;;;;;17.10;12.20;;;;;;;6.97;70.80;99096.71;105664;1257;63930;-66
2024/03/24 05:40:44;;;;;;;15.80;11.40;;;;;;;6.99;70.58;99096.34;105561;1254;61331;-68
2024/03/24 05:43:11;;;;;;;15.70;11.40;;;;;;;7.01;70.44;99096.03;105660;1255;61267;-69
2024/03/24 05:45:38;;;;;;;16.70;11.70;;;;;;;7.02;70.50;99096.64;105338;1262;65943;-68
2024/03/24 05:48:05;;;;;;;17.20;11.50;;;;;;;7.03;70.38;99090.59;105684;1254;61259;-67
2024/03/24 05:50:32;;;;;;;14.60;11.30;;;;;;;7.07;70.46;99088.86;105559;1257;64018;-68
2024/03/24 05:52:59;;;;;;;15.40;11.60;;;;;;;7.13;70.51;99086.36;105516;1256;61439;-67
2024/03/24 05:55:26;;;;;;;15.40;11.30;;;;;;;7.22;70.56;99092.11;105329;1262;61204;-67
2024/03/24 05:57:53;;;;;;;14.40;11.40;;;;;;;7.32;70.32;99093.05;105622;1256;65825;-67
2024/03/24 06:00:19;;;;;;;16.90;13.20;;;;;;;7.41;70.12;99089.08;105418;1257;61346;-69
2024/03/24 06:02:46;;;;;;;17.50;13.20;;;;;;;7.50;70.04;99083.58;105588;1257;63898;-67
2024/03/24 06:05:14;;;;;;;15.60;11.40;;;;;;;7.58;69.89;99077.45;105592;1256;61338;-66
2024/03/24 06:07:40;;;;;;;14.10;11.30;;;;;;;7.65;69.67;99070.70;105670;1259;61250;-66
2024/03/24 06:10:09;;;;;;;14.70;11.00;;;;;;;7.71;69.41;99072.98;105655;1255;66057;-67
2024/03/24 06:12:36;;;;;;;15.20;10.80;;;;;;;7.77;69.44;99072.05;105620;1256;61356;-69
2024/03/24 06:15:03;;;;;;;15.30;11.10;;;;;;;7.87;69.41;99076.41;105565;1257;63709;-66
2024/03/24 06:17:30;;;;;;;14.30;11.10;;;;;;;7.99;69.42;99073.80;105702;1256;61237;-67
2024/03/24 06:19:57;;;;;;;15.00;10.20;;;;;;;8.10;69.12;99074.52;105572;1256;61253;-68
2024/03/24 06:22:24;;;;;;;15.60;11.00;;;;;;;8.18;68.80;99073.42;105531;1259;66067;-68
2024/03/24 06:24:51;;;;;;;15.60;11.30;;;;;;;8.27;68.67;99072.45;105457;1256;61360;-68
2024/03/24 06:27:18;;;;;;;16.50;11.20;;;;;;;8.36;68.42;99073.98;105718;1256;63697;-69
2024/03/24 06:29:46;;;;;;;14.60;10.20;;;;;;;8.46;68.20;99075.17;105678;1256;61278;-68
2024/03/24 06:32:12;;;;;;;14.40;11.00;;;;;;;8.57;68.07;99069.96;105670;1259;61220;-69
2024/03/24 06:34:39;;;;;;;14.60;10.70;;;;;;;8.63;67.69;99061.86;105529;1257;65990;-69
2024/03/24 06:37:06;;;;;;;13.70;10.80;;;;;;;8.63;67.45;99059.90;105663;1256;61207;-68
2024/03/24 06:39:33;;;;;;;16.00;10.30;;;;;;;8.60;67.32;99060.33;105326;1256;64071;-69
2024/03/24 06:42:04;;;;;;;14.30;9.10;;;;;;;8.57;67.16;99060.60;105519;1256;61231;-69
2024/03/24 06:44:40;;;;;;;16.20;10.00;;;;;;;8.52;67.10;99056.58;105557;1254;61247;-69
2024/03/24 06:47:07;;;;;;;14.20;9.50;;;;;;;8.47;67.19;99052.98;105968;1255;66000;-68
2024/03/24 06:49:34;;;;;;;14.60;10.20;;;;;;;8.48;67.42;99052.33;105747;1251;61373;-68
2024/03/24 06:52:01;;;;;;;14.50;9.40;;;;;;;8.52;67.51;99061.80;105826;1252;64037;-68
2024/03/24 06:54:27;;;;;;;14.70;9.90;;;;;;;8.53;67.36;99057.02;105680;1253;61228;-69
2024/03/24 06:56:55;;;;;;;15.70;9.90;;;;;;;8.51;67.45;99043.77;105972;1252;62797;-69
2024/03/24 06:59:22;;;;;;;12.70;9.90;;;;;;;8.53;67.50;99045.77;105773;1256;65998;-68
2024/03/24 07:01:49;;;;;;;14.80;10.20;;;;;;;8.54;67.60;99046.56;105714;1251;61329;-69
2024/03/24 07:04:15;;;;;;;11.90;9.00;;;;;;;8.53;67.61;99046.77;105644;1251;64958;-68
2024/03/24 07:06:42;;;;;;;12.50;9.40;;;;;;;8.55;67.64;99051.52;105725;1251;61328;-69
2024/03/24 07:09:09;;;;;;;14.00;9.20;;;;;;;8.55;67.69;99050.24;105709;1251;61262;-68
2024/03/24 07:11:36;;;;;;;12.20;9.30;;;;;;;8.58;67.76;99047.35;105919;1256;66001;-68
2024/03/24 07:14:02;;;;;;;12.90;9.30;;;;;;;8.63;67.83;99044.44;105637;1253;61333;-68
2024/03/24 07:16:29;;;;;;;13.40;9.00;;;;;;;8.69;67.89;99042.73;106064;1253;62684;-70
2024/03/24 07:18:56;;;;;;;13.40;9.90;;;;;;;8.76;67.97;99036.81;105846;1251;61235;-67
2024/03/24 07:21:23;;;;;;;12.70;9.50;;;;;;;8.85;67.99;99034.70;105921;1253;61253;-67
2024/03/24 07:23:51;;;;;;;14.30;9.20;;;;;;;8.95;67.97;99035.13;105884;1256;65888;-67
2024/03/24 07:26:18;;;;;;;12.10;9.00;;;;;;;9.06;67.70;99033.77;105544;1253;61355;-68
2024/03/24 07:28:47;;;;;;;11.70;8.50;;;;;;;9.16;67.52;99026.14;105536;1254;64039;-68
2024/03/24 07:31:18;;;;;;;12.20;8.60;;;;;;;9.25;67.11;99023.35;105765;1258;61339;-68
2024/03/24 07:33:45;;;;;;;11.50;8.40;;;;;;;9.32;66.72;99020.69;105952;1251;61349;-67
2024/03/24 07:36:13;;;;;;;10.90;8.40;;;;;;;9.38;66.48;99015.02;105831;1253;65738;-66
2024/03/24 07:38:40;;;;;;;11.60;8.10;;;;;;;9.47;66.43;99013.52;105858;1251;61265;-68
2024/03/24 07:41:07;;;;;;;11.00;7.70;;;;;;;9.58;66.21;99011.60;105835;1253;65952;-69
2024/03/24 07:43:34;;;;;;;11.70;7.60;;;;;;;9.68;65.81;99011.11;105741;1256;61397;-69
2024/03/24 07:46:01;;;;;;;12.80;7.80;;;;;;;9.76;65.49;99002.36;105847;1251;61353;-70
2024/03/24 07:48:28;;;;;;;12.20;7.70;;;;;;;9.85;65.40;98998.05;105805;1257;66320;-70
2024/03/24 07:50:55;;;;;;;13.30;7.80;;;;;;;9.95;65.35;98998.91;105993;1254;61298;-70
2024/03/24 07:53:22;;;;;;;12.20;7.60;;;;;;;10.09;65.39;98999.16;105833;1257;63647;-67
2024/03/24 07:55:49;;;;;;;9.60;7.10;;;;;;;10.24;64.87;98991.20;105437;1260;61145;-69
2024/03/24 07:58:16;;;;;;;9.70;7.70;;;;;;;10.37;64.16;98991.27;105952;1251;61117;-68
2024/03/24 08:00:43;;;;;;;11.10;6.50;;;;;;;10.52;63.75;98983.77;105935;1256;66006;-70
2024/03/24 08:03:10;;;;;;;9.70;6.60;;;;;;;10.70;63.61;98972.27;105876;1256;61234;-70
2024/03/24 08:05:38;;;;;;;9.30;6.10;;;;;;;10.85;62.53;98973.10;105879;1251;63734;-69
2024/03/24 08:08:06;;;;;;;8.10;6.10;;;;;;;10.95;62.22;98972.85;106008;1251;61282;-67
2024/03/24 08:10:34;;;;;;;8.70;6.00;;;;;;;11.03;61.61;98972.59;105863;1255;61165;-68
2024/03/24 08:13:00;;;;;;;11.60;7.80;;;;;;;11.07;61.38;98974.72;105844;1255;67511;-68
2024/03/24 08:15:28;;;;;;;9.10;6.50;;;;;;;11.12;61.49;98969.10;105671;1253;61281;-70
2024/03/24 08:17:55;;;;;;;10.10;6.70;;;;;;;11.16;61.17;98965.30;105849;1251;63142;-69
2024/03/24 08:20:22;;;;;;;8.20;5.70;;;;;;;11.22;61.33;98959.09;105898;1251;61341;-70
2024/03/24 08:22:51;;;;;;;8.00;6.10;;;;;;;11.31;61.31;98959.71;105823;1256;61241;-69
2024/03/24 08:25:18;;;;;;;9.50;6.20;;;;;;;11.44;61.46;98957.70;105798;1253;66746;-68
2024/03/24 08:27:45;;;;;;;11.70;6.30;;;;;;;11.56;61.21;98957.30;105831;1256;61231;-67
2024/03/24 08:30:12;;;;;;;9.20;6.40;;;;;;;11.66;61.30;98956.52;105607;1253;64071;-69
2024/03/24 08:32:39;;;;;;;6.60;5.10;;;;;;;11.78;60.54;98964.15;105772;1251;61267;-69
2024/03/24 08:35:07;;;;;;;8.00;5.70;;;;;;;11.86;60.02;98967.11;105924;1251;61379;-68
2024/03/24 08:37:34;;;;;;;7.60;5.60;;;;;;;11.94;59.58;98961.00;105896;1255;66114;-69
2024/03/24 08:40:02;;;;;;;9.10;5.70;;;;;;;12.01;59.37;98960.57;106003;1251;61433;-68
2024/03/24 08:42:29;;;;;;;7.90;5.40;;;;;;;12.09;59.55;98957.10;105939;1254;63918;-68
2024/03/24 08:44:55;;;;;;;8.40;6.10;;;;;;;12.18;59.63;98952.79;105929;1253;61296;-70
2024/03/24 08:47:24;;;;;;;7.20;5.40;;;;;;;12.28;59.65;98952.32;105897;1251;61333;-70
2024/03/24 08:49:50;;;;;;;11.90;7.30;;;;;;;12.40;59.20;98952.44;105949;1253;67860;-70
2024/03/24 08:52:17;;;;;;;7.90;5.30;;;;;;;12.51;59.15;98949.07;105663;1257;67138;-68
2024/03/24 08:54:44;;;;;;;5.60;4.40;;;;;;;12.63;58.03;98946.92;105869;1253;65486;-69
2024/03/24 08:57:11;;;;;;;8.00;4.90;;;;;;;12.78;56.95;98955.16;105708;1256;61722;-68
2024/03/24 08:59:37;;;;;;;7.20;4.70;;;;;;;12.87;55.97;98956.88;106032;1253;62933;-68
2024/03/24 09:02:04;;;;;;;6.20;4.70;;;;;;;12.92;55.83;98951.09;105854;1256;67836;-67
2024/03/24 09:04:31;;;;;;;5.60;4.70;;;;;;;12.97;56.39;98936.53;105746;1251;61385;-69
2024/03/24 09:06:58;;;;;;;7.30;5.10;;;;;;;13.08;56.54;98933.58;105732;1253;65366;-67
2024/03/24 09:09:25;;;;;;;8.90;5.20;;;;;;;13.19;56.79;98933.17;105624;1258;62430;-68
2024/03/24 09:11:52;;;;;;;6.90;4.80;;;;;;;13.32;56.22;98933.56;105926;1254;61276;-69
2024/03/24 09:14:18;;;;;;;5.70;4.40;;;;;;;13.42;55.95;98924.21;105734;1253;67146;-67
2024/03/24 09:16:46;;;;;;;5.30;4.20;;;;;;;13.54;55.41;98922.80;105873;1251;61397;-69
2024/03/24 09:19:15;;;;;;;7.40;4.50;;;;;;;13.66;55.41;98916.16;105746;1253;64836;-70
2024/03/24 09:21:42;;;;;;;10.10;4.60;;;;;;;13.76;54.78;98910.45;106011;1251;61300;-68
2024/03/24 09:24:09;;;;;;;6.80;4.40;;;;;;;13.81;54.78;98902.12;105830;1254;61191;-68
2024/03/24 09:26:36;;;;;;;6.90;4.40;;;;;;;13.86;54.67;98900.82;105966;1253;67696;-68
2024/03/24 09:29:03;;;;;;;7.10;4.40;;;;;;;13.91;54.57;98890.76;105947;1253;61254;-69
2024/03/24 09:31:30;;;;;;;7.70;5.20;;;;;;;13.98;54.54;98891.39;106332;1251;65737;-68
2024/03/24 09:33:57;;;;;;;6.30;4.50;;;;;;;14.08;53.91;98884.02;105808;1253;61262;-68
2024/03/24 09:36:24;;;;;;;7.00;4.50;;;;;;;14.17;53.63;98873.39;105742;1250;61214;-69
2024/03/24 09:38:51;;;;;;;7.30;4.70;;;;;;;14.24;53.60;98870.88;106151;1250;67660;-70
2024/03/24 09:41:18;;;;;;;5.70;4.30;;;;;;;14.31;53.40;98870.04;109599;1250;61470;-68
2024/03/24 09:43:45;;;;;;;7.00;4.20;;;;;;;14.38;53.49;98875.66;109639;1251;63978;-68
2024/03/24 09:46:13;;;;;;;7.30;4.30;;;;;;;14.46;53.35;98875.10;109525;1251;59044;-70
2024/03/24 09:48:39;;;;;;;8.20;4.00;;;;;;;14.56;53.10;98873.52;109464;1251;58997;-69
2024/03/24 09:51:06;;;;;;;6.80;4.10;;;;;;;14.66;52.42;98867.83;109559;1251;66054;-68
2024/03/24 09:53:33;;;;;;;6.60;4.40;;;;;;;14.81;52.46;98871.40;109515;1250;59026;-68
2024/03/24 09:56:00;;;;;;;7.80;4.30;;;;;;;14.94;51.97;98866.58;109701;1250;65019;-68
2024/03/24 09:58:27;;;;;;;8.90;4.70;;;;;;;15.11;51.87;98861.70;109593;1250;58930;-68
2024/03/24 10:00:53;;;;;;;8.30;4.00;;;;;;;15.29;50.66;98868.73;109704;1250;58902;-68
2024/03/24 10:03:20;;;;;;;6.50;4.20;;;;;;;15.45;50.06;98864.09;109481;1252;66242;-70
2024/03/24 10:05:47;;;;;;;8.20;4.40;;;;;;;15.61;49.87;98865.48;109597;1250;68508;-68
2024/03/24 10:08:14;;;;;;;6.70;4.10;;;;;;;15.72;49.12;98858.77;109676;1250;64500;-68
2024/03/24 10:10:40;;;;;;;6.60;3.60;;;;;;;15.87;49.11;98845.05;109664;1250;60137;-69
2024/03/24 10:13:08;;;;;;;5.90;3.30;;;;;;;16.10;48.15;98839.19;109424;1251;60517;-68
2024/03/24 10:15:34;;;;;;;5.30;3.40;;;;;;;16.31;47.92;98832.84;109702;1250;67074;-69
2024/03/24 10:18:09;;;;;;;7.10;3.80;;;;;;;16.43;47.69;98826.27;109650;1250;58945;-70
2024/03/24 10:20:37;;;;;;;6.30;3.40;;;;;;;16.54;47.88;98819.19;109465;1250;64051;-70
2024/03/24 10:23:04;;;;;;;6.00;4.00;;;;;;;16.62;47.26;98823.70;109541;1250;58989;-70
2024/03/24 10:25:32;;;;;;;5.70;3.40;;;;;;;16.61;47.20;98827.15;109585;1250;58943;-69
2024/03/24 10:27:59;;;;;;;5.30;3.40;;;;;;;16.54;47.28;98818.79;109765;1250;66900;-70
2024/03/24 10:30:26;;;;;;;6.60;3.80;;;;;;;16.49;47.13;98828.23;109595;1251;58972;-70
2024/03/24 10:32:53;;;;;;;8.80;3.90;;;;;;;16.37;46.38;98827.31;109425;1253;65376;-69
2024/03/24 10:35:20;;;;;;;12.40;5.20;;;;;;;16.25;46.98;98825.07;109565;1251;59014;-69
2024/03/24 10:37:47;;;;;;;9.50;3.40;;;;;;;16.19;47.43;98822.40;109700;1251;58881;-70
2024/03/24 10:40:13;;;;;;;8.90;4.90;;;;;;;16.17;47.16;98826.41;109677;1251;65782;-69
2024/03/24 10:42:45;;;;;;;6.40;4.10;;;;;;;16.12;46.97;98820.84;109671;1251;59552;-69
2024/03/24 10:45:14;;;;;;;6.20;3.90;;;;;;;16.07;47.30;98816.23;109641;1252;63876;-71
2024/03/24 10:47:44;;;;;;;6.80;4.30;;;;;;;16.06;47.64;98811.67;109574;1252;58906;-69
2024/03/24 10:50:15;;;;;;;11.70;5.50;;;;;;;16.04;47.62;98817.20;109599;1251;58865;-70
2024/03/24 10:52:42;;;;;;;8.10;3.90;;;;;;;16.03;47.93;98826.98;109586;1251;67271;-72
2024/03/24 10:55:10;;;;;;;6.50;4.20;;;;;;;16.02;48.18;98818.91;109692;1253;59586;-71
2024/03/24 10:57:38;;;;;;;6.50;3.90;;;;;;;15.98;47.99;98817.48;109638;1251;65059;-69
2024/03/24 11:00:06;;;;;;;11.70;4.10;;;;;;;15.90;47.81;98811.92;109575;1250;58973;-70
2024/03/24 11:02:35;;;;;;;6.90;4.00;;;;;;;15.82;47.79;98815.30;109353;1250;58875;-74
2024/03/24 11:05:02;;;;;;;9.10;4.00;;;;;;;15.75;47.61;98809.27;109679;1251;74922;-72
2024/03/24 11:07:29;;;;;;;9.50;4.20;;;;;;;15.69;48.13;98800.71;109604;1250;59745;-73
2024/03/24 11:09:58;;;;;;;6.50;3.90;;;;;;;15.63;48.24;98799.09;109603;1253;64331;-72
2024/03/24 11:12:25;;;;;;;11.90;3.60;;;;;;;15.55;48.80;98790.13;109596;1251;58994;-72
2024/03/24 11:14:52;;;;;;;5.10;3.80;;;;;;;15.51;49.26;98796.63;109678;1250;58929;-70
2024/03/24 11:17:19;;;;;;;5.10;3.70;;;;;;;15.50;49.05;98790.61;109570;1250;66057;-73
2024/03/24 11:19:48;;;;;;;4.90;3.50;;;;;;;15.50;49.42;98785.83;109677;1250;59656;-70
2024/03/24 11:22:15;;;;;;;5.70;3.60;;;;;;;15.53;49.78;98780.23;109641;1251;62833;-69
2024/03/24 11:24:42;;;;;;;6.90;4.20;;;;;;;15.58;50.22;98786.30;109416;1250;58895;-68
2024/03/24 11:27:13;;;;;;;6.20;4.10;;;;;;;15.61;50.03;98785.64;109642;1251;58973;-69
2024/03/24 11:29:47;;;;;;;7.90;4.60;;;;;;;15.62;49.65;98784.59;109618;1252;67078;-69
2024/03/24 11:32:17;;;;;;;6.90;3.90;;;;;;;15.62;49.31;98794.39;109595;1251;59124;-69
2024/03/24 11:34:55;;;;;;;8.30;4.00;;;;;;;15.61;48.94;98794.66;109506;1252;65256;-69